Time;durP1;ratioP1;P1;durP2;ratioP2;P2;SDS_P1;SDS_P2;PMS_P1;PMS_P2;Temp;Humidity;BMP_temperature;BMP_pressure;BME280_temperature;BME280_humidity;BME280_pressure;Samples;Min_cycle;Max_cycle;Signal;HPM_P1;HPM_P2
2023/03/18 00:01:49;;;;;;;0.40;0.40;;;;;;;13.40;60.42;100291.78;5176306;28;20030;-82
2023/03/18 00:04:20;;;;;;;0.30;0.30;;;;;;;13.40;59.90;100286.50;5162525;28;20030;-82
2023/03/18 00:06:50;;;;;;;0.50;0.50;;;;;;;13.42;59.69;100287.28;5146456;28;20046;-81
2023/03/18 00:09:21;;;;;;;0.95;0.95;;;;;;;13.45;59.71;100292.41;5160313;28;20041;-82
2023/03/18 00:11:55;;;;;;;0.30;0.30;;;;;;;13.49;59.43;100304.53;5165006;28;20029;-82
2023/03/18 00:14:26;;;;;;;0.60;0.60;;;;;;;13.44;59.75;100306.50;5190936;28;20156;-82
2023/03/18 00:16:57;;;;;;;0.22;0.22;;;;;;;13.36;60.11;100303.31;5164010;28;20025;-83
2023/03/18 00:19:28;;;;;;;0.47;0.47;;;;;;;13.41;59.81;100301.38;5162412;28;20310;-82
2023/03/18 00:21:58;;;;;;;0.45;0.45;;;;;;;13.34;60.53;100299.94;5148233;28;20029;-83
2023/03/18 00:24:29;;;;;;;0.40;0.40;;;;;;;13.38;59.83;100296.22;5147945;28;20029;-83
2023/03/18 00:27:00;;;;;;;0.45;0.45;;;;;;;13.36;60.37;100298.06;5192369;28;20083;-82
2023/03/18 00:29:30;;;;;;;0.50;0.50;;;;;;;13.17;61.83;100287.50;5162458;28;20117;-82
2023/03/18 00:32:01;;;;;;;0.20;0.20;;;;;;;13.25;61.65;100289.81;5151001;28;20031;-84
2023/03/18 00:34:32;;;;;;;0.30;0.30;;;;;;;13.18;61.13;100303.22;5178372;28;20029;-82
2023/03/18 00:37:02;;;;;;;0.52;0.50;;;;;;;13.25;60.54;100290.66;5163791;28;20096;-82
2023/03/18 00:39:34;;;;;;;1.55;1.30;;;;;;;13.27;60.30;100275.63;5164079;28;20022;-82
2023/03/18 00:42:09;;;;;;;0.20;0.20;;;;;;;13.31;59.98;100269.28;5166734;28;20010;-82
2023/03/18 00:44:39;;;;;;;0.38;0.38;;;;;;;13.33;60.33;100271.88;5152507;28;20051;-82
2023/03/18 00:47:10;;;;;;;0.50;0.50;;;;;;;13.25;60.45;100285.38;5192361;28;20040;-82
2023/03/18 00:49:41;;;;;;;0.70;0.50;;;;;;;13.26;59.99;100286.25;5177595;28;20069;-82
2023/03/18 00:52:12;;;;;;;0.40;0.40;;;;;;;13.30;60.22;100290.44;5184857;28;20681;-81
2023/03/18 00:54:42;;;;;;;0.30;0.30;;;;;;;13.36;60.20;100305.97;5169458;28;20077;-81
2023/03/18 00:57:13;;;;;;;5.15;0.60;;;;;;;13.27;61.22;100303.75;5144743;28;20038;-82
2023/03/18 00:59:43;;;;;;;0.52;0.45;;;;;;;13.26;60.80;100297.63;5163303;28;20050;-82
2023/03/18 01:02:14;;;;;;;0.60;0.60;;;;;;;13.21;61.66;100299.63;5162649;28;20022;-83
2023/03/18 01:04:45;;;;;;;0.47;0.47;;;;;;;13.20;61.48;100296.13;5161547;28;20042;-82
2023/03/18 01:07:16;;;;;;;0.30;0.30;;;;;;;13.23;60.69;100298.63;5177700;28;20030;-82
2023/03/18 01:09:48;;;;;;;2.25;1.63;;;;;;;13.21;60.84;100300.47;5161576;28;20093;-82
2023/03/18 01:12:18;;;;;;;0.63;0.63;;;;;;;13.21;61.04;100299.63;5162621;28;20049;-82
2023/03/18 01:14:49;;;;;;;0.30;0.30;;;;;;;13.25;60.57;100300.34;5194990;28;20045;-82
2023/03/18 01:17:19;;;;;;;0.30;0.30;;;;;;;13.24;60.63;100294.19;5161174;28;20057;-82
2023/03/18 01:19:50;;;;;;;0.65;0.65;;;;;;;13.23;60.35;100287.22;5165324;28;20053;-83
2023/03/18 01:22:20;;;;;;;0.30;0.30;;;;;;;13.21;60.41;100292.56;5165781;28;20041;-82
2023/03/18 01:24:51;;;;;;;2.38;0.85;;;;;;;13.19;60.59;100283.88;5160545;28;20042;-82
2023/03/18 01:27:22;;;;;;;0.35;0.35;;;;;;;13.19;60.56;100286.50;5165637;28;20504;-83
2023/03/18 01:29:52;;;;;;;0.30;0.30;;;;;;;13.23;60.32;100288.09;5192569;28;20026;-82
2023/03/18 01:32:23;;;;;;;0.43;0.43;;;;;;;13.20;60.85;100288.22;5165006;28;20034;-82
2023/03/18 01:34:53;;;;;;;0.50;0.50;;;;;;;13.25;60.24;100281.91;5143235;28;20046;-82
2023/03/18 01:37:25;;;;;;;0.88;0.88;;;;;;;13.19;60.73;100289.13;5163564;28;20925;-83
2023/03/18 01:39:57;;;;;;;0.40;0.40;;;;;;;13.07;62.62;100287.06;5178535;28;20114;-83
2023/03/18 01:42:27;;;;;;;0.30;0.30;;;;;;;13.12;61.34;100284.22;5163937;28;20734;-82
2023/03/18 01:45:23;;;;;;;0.47;0.47;;;;;;;13.15;61.62;100282.31;5164750;28;20042;-82
2023/03/18 01:47:56;;;;;;;0.70;0.63;;;;;;;13.11;61.26;100283.34;5155621;28;20031;-82
2023/03/18 01:50:31;;;;;;;1.13;0.87;;;;;;;13.11;61.70;100282.50;5186119;28;20542;-82
2023/03/18 01:53:07;;;;;;;0.75;0.75;;;;;;;13.13;61.64;100281.50;5160390;28;20061;-82
2023/03/18 01:55:39;;;;;;;0.43;0.43;;;;;;;13.11;61.20;100272.81;5192381;28;20069;-83
2023/03/18 01:58:24;;;;;;;0.30;0.30;;;;;;;13.09;61.28;100273.81;5169425;28;20068;-83
2023/03/18 02:01:01;;;;;;;0.45;0.45;;;;;;;13.06;61.38;100274.81;5178481;28;20042;-82
2023/03/18 02:03:33;;;;;;;0.20;0.20;;;;;;;13.09;61.30;100279.09;5185309;28;20022;-82
2023/03/18 02:06:03;;;;;;;0.35;0.35;;;;;;;13.06;61.48;100275.66;5182700;28;20216;-82
2023/03/18 02:08:36;;;;;;;0.75;0.75;;;;;;;13.07;61.24;100277.38;5184359;28;20102;-82
2023/03/18 02:11:09;;;;;;;0.65;0.57;;;;;;;13.11;61.01;100277.25;5150222;28;20042;-83
2023/03/18 02:13:42;;;;;;;0.20;0.20;;;;;;;13.12;60.69;100274.53;5156496;28;20034;-82
2023/03/18 02:16:24;;;;;;;0.85;0.82;;;;;;;13.08;60.58;100286.16;5166127;28;20046;-82
2023/03/18 02:19:00;;;;;;;1.65;1.20;;;;;;;13.10;61.13;100286.91;5161853;28;20040;-82
2023/03/18 02:21:45;;;;;;;0.55;0.55;;;;;;;13.01;61.31;100277.66;5168630;28;20094;-83
2023/03/18 02:24:28;;;;;;;1.05;0.70;;;;;;;12.98;61.33;100275.16;5197887;28;20038;-83
2023/03/18 02:27:23;;;;;;;3.10;1.10;;;;;;;12.95;61.43;100272.66;5182048;28;20060;-83
2023/03/18 02:29:57;;;;;;;0.40;0.40;;;;;;;12.95;61.22;100280.56;5177278;28;20607;-84
2023/03/18 02:32:31;;;;;;;0.40;0.40;;;;;;;12.94;61.31;100272.72;5169462;28;20030;-84
2023/03/18 02:35:06;;;;;;;0.30;0.30;;;;;;;12.91;61.19;100276.34;5142504;28;20057;-83
2023/03/18 02:37:37;;;;;;;0.28;0.28;;;;;;;12.87;61.34;100285.31;5157140;28;20252;-83
2023/03/18 02:40:25;;;;;;;4.20;0.52;;;;;;;12.85;61.42;100282.72;5193265;28;20057;-82
2023/03/18 02:42:57;;;;;;;1.05;1.05;;;;;;;12.80;62.03;100281.25;5188840;28;20022;-81
2023/03/18 02:45:37;;;;;;;0.20;0.20;;;;;;;12.84;61.30;100281.03;5164099;28;20091;-82
2023/03/18 02:48:13;;;;;;;0.30;0.30;;;;;;;12.86;61.44;100281.81;5159681;28;20604;-81
2023/03/18 02:50:44;;;;;;;11.40;2.15;;;;;;;12.77;61.69;100278.72;5161605;28;20413;-82
2023/03/18 02:53:15;;;;;;;0.20;0.20;;;;;;;12.81;61.30;100283.78;5176145;28;20034;-83
2023/03/18 02:55:45;;;;;;;0.65;0.60;;;;;;;12.75;61.58;100286.69;5162795;28;20042;-81
2023/03/18 02:58:16;;;;;;;1.45;0.80;;;;;;;12.69;61.73;100292.22;5175836;28;20080;-83
2023/03/18 03:00:46;;;;;;;0.30;0.30;;;;;;;12.67;61.62;100297.53;5163143;28;20059;-82
2023/03/18 03:03:17;;;;;;;0.73;0.73;;;;;;;12.66;61.46;100297.63;5160478;28;20036;-84
2023/03/18 03:05:48;;;;;;;0.52;0.52;;;;;;;12.66;61.40;100295.00;5145836;28;20042;-81
2023/03/18 03:08:19;;;;;;;0.40;0.40;;;;;;;12.60;61.70;100298.72;5163841;28;20042;-83
2023/03/18 03:10:51;;;;;;;0.38;0.38;;;;;;;12.59;61.78;100307.53;5146646;28;20041;-82
2023/03/18 03:13:23;;;;;;;0.28;0.28;;;;;;;12.55;61.95;100301.56;5178534;28;20464;-82
2023/03/18 03:15:54;;;;;;;0.47;0.40;;;;;;;12.53;61.83;100306.03;5150740;28;20053;-82
2023/03/18 03:18:25;;;;;;;0.20;0.20;;;;;;;12.49;61.99;100307.09;5169874;28;20168;-82
2023/03/18 03:20:55;;;;;;;0.45;0.45;;;;;;;12.48;61.91;100307.16;5181992;28;20046;-83
2023/03/18 03:23:27;;;;;;;0.22;0.22;;;;;;;12.48;61.60;100301.91;5193214;28;20022;-82
2023/03/18 03:25:58;;;;;;;2.85;0.70;;;;;;;12.47;61.48;100306.28;5145451;28;20125;-82
2023/03/18 03:28:31;;;;;;;0.30;0.30;;;;;;;12.41;61.65;100301.28;5164829;28;20168;-82
2023/03/18 03:31:02;;;;;;;0.50;0.50;;;;;;;12.44;61.35;100304.63;5161340;28;20038;-82
2023/03/18 03:33:32;;;;;;;0.30;0.30;;;;;;;12.43;61.50;100308.19;5180422;28;20033;-82
2023/03/18 03:36:03;;;;;;;0.35;0.35;;;;;;;12.34;61.94;100312.97;5159292;28;20123;-83
2023/03/18 03:38:33;;;;;;;0.98;0.93;;;;;;;12.28;61.99;100309.66;5162292;28;20117;-83
2023/03/18 03:41:04;;;;;;;1.25;1.15;;;;;;;12.31;61.68;100318.34;5158443;28;20026;-83
2023/03/18 03:43:39;;;;;;;4.20;0.85;;;;;;;12.22;62.57;100323.06;5160938;28;20041;-82
2023/03/18 03:46:11;;;;;;;0.65;0.65;;;;;;;12.28;62.54;100325.44;5175114;28;20049;-84
2023/03/18 03:48:42;;;;;;;0.30;0.30;;;;;;;12.23;62.44;100332.69;5156183;28;20051;-82
2023/03/18 03:51:13;;;;;;;1.45;0.85;;;;;;;12.27;63.29;100329.00;5173994;28;20129;-84
2023/03/18 03:53:45;;;;;;;1.48;0.77;;;;;;;12.23;63.46;100327.41;5170783;28;20113;-84
2023/03/18 03:56:16;;;;;;;0.55;0.55;;;;;;;12.23;63.30;100334.47;5143459;28;20069;-83
2023/03/18 03:58:46;;;;;;;0.30;0.30;;;;;;;12.15;63.81;100336.56;5175875;28;20029;-83
2023/03/18 04:01:17;;;;;;;0.40;0.40;;;;;;;12.19;63.60;100346.84;5158936;28;20061;-85
2023/03/18 04:03:48;;;;;;;0.45;0.45;;;;;;;12.16;63.30;100346.13;5175405;28;20997;-83
2023/03/18 04:06:18;;;;;;;0.77;0.77;;;;;;;12.14;64.46;100345.34;5156451;28;20053;-82
2023/03/18 04:08:49;;;;;;;0.70;0.70;;;;;;;12.08;65.05;100334.13;5160645;28;20022;-82
2023/03/18 04:11:20;;;;;;;0.65;0.65;;;;;;;12.15;64.55;100344.44;5141899;28;20117;-83
2023/03/18 04:13:51;;;;;;;2.40;1.55;;;;;;;12.12;64.36;100340.13;5146282;28;20053;-82
2023/03/18 04:16:22;;;;;;;0.40;0.40;;;;;;;12.15;64.17;100339.19;5175201;28;20257;-83
2023/03/18 04:18:52;;;;;;;0.50;0.50;;;;;;;12.11;64.78;100349.81;5161361;28;20032;-83
2023/03/18 04:21:22;;;;;;;0.20;0.20;;;;;;;11.99;65.40;100357.31;5188818;28;20044;-84
2023/03/18 04:23:53;;;;;;;0.68;0.68;;;;;;;12.07;64.66;100347.34;5196228;28;20033;-82
2023/03/18 04:26:24;;;;;;;0.40;0.40;;;;;;;12.04;65.09;100347.47;5158037;28;20064;-83
2023/03/18 04:28:54;;;;;;;0.30;0.30;;;;;;;12.04;64.84;100342.22;5144755;28;20025;-83
2023/03/18 04:31:24;;;;;;;0.40;0.40;;;;;;;12.09;64.51;100349.00;5163639;28;20046;-82
2023/03/18 04:33:56;;;;;;;0.82;0.82;;;;;;;12.09;64.39;100351.63;5167698;28;20037;-84
2023/03/18 04:36:27;;;;;;;0.65;0.43;;;;;;;12.11;64.97;100348.94;5180435;28;20030;-84
2023/03/18 04:38:58;;;;;;;0.75;0.75;;;;;;;12.05;64.56;100352.69;5165991;28;20034;-82
2023/03/18 04:41:29;;;;;;;0.20;0.20;;;;;;;12.09;64.29;100358.69;5161788;28;20038;-83
2023/03/18 04:44:00;;;;;;;0.50;0.50;;;;;;;12.01;64.95;100358.13;5160782;28;20034;-83
2023/03/18 04:46:31;;;;;;;0.60;0.60;;;;;;;11.90;65.75;100364.63;5147292;28;20041;-82
2023/03/18 04:49:01;;;;;;;0.20;0.20;;;;;;;11.74;69.01;100366.09;5161967;28;20084;-83
2023/03/18 04:51:32;;;;;;;0.30;0.30;;;;;;;11.64;70.03;100376.97;5159092;28;20057;-82
2023/03/18 04:54:02;;;;;;;0.35;0.35;;;;;;;11.62;69.55;100372.69;5161952;28;20049;-82
2023/03/18 04:56:33;;;;;;;1.25;1.20;;;;;;;11.54;71.41;100385.25;5145962;28;20117;-82
2023/03/18 04:59:05;;;;;;;1.30;1.20;;;;;;;11.37;73.23;100380.59;5190539;28;20041;-82
2023/03/18 05:01:35;;;;;;;0.40;0.40;;;;;;;11.38;73.07;100379.69;5160646;28;20030;-81
2023/03/18 05:04:07;;;;;;;1.00;0.73;;;;;;;11.40;72.54;100377.84;5160258;28;20037;-82
2023/03/18 05:06:37;;;;;;;1.33;0.45;;;;;;;11.41;73.09;100379.56;5144582;28;20085;-83
2023/03/18 05:09:08;;;;;;;0.50;0.45;;;;;;;11.41;73.29;100379.56;5161406;28;20275;-83
2023/03/18 05:11:39;;;;;;;0.30;0.30;;;;;;;11.47;72.18;100384.59;5163285;28;20438;-83
2023/03/18 05:14:09;;;;;;;0.30;0.30;;;;;;;11.38;72.64;100377.03;5159510;28;20026;-84
2023/03/18 05:16:40;;;;;;;0.20;0.20;;;;;;;11.33;73.77;100380.72;5143488;28;20038;-82
2023/03/18 05:19:11;;;;;;;1.02;0.45;;;;;;;11.43;72.99;100377.75;5143184;28;20022;-82
2023/03/18 05:21:41;;;;;;;0.63;0.63;;;;;;;11.32;74.12;100386.03;5180193;28;20038;-83
2023/03/18 05:24:12;;;;;;;0.60;0.60;;;;;;;11.39;72.93;100390.16;5174106;28;20026;-82
2023/03/18 05:26:43;;;;;;;1.92;0.93;;;;;;;11.32;74.06;100386.03;5171824;28;20042;-81
2023/03/18 05:29:15;;;;;;;0.47;0.47;;;;;;;11.39;73.56;100387.53;5157847;28;20462;-81
2023/03/18 05:31:45;;;;;;;0.63;0.63;;;;;;;11.45;72.61;100389.03;5170872;28;20038;-82
2023/03/18 05:34:16;;;;;;;1.95;1.00;;;;;;;11.53;71.79;100389.63;5178403;28;20030;-81
2023/03/18 05:36:47;;;;;;;0.38;0.38;;;;;;;11.40;72.51;100391.00;5161944;28;20251;-81
2023/03/18 05:39:17;;;;;;;0.93;0.73;;;;;;;11.58;70.66;100392.09;5175823;28;20030;-83
2023/03/18 05:41:48;;;;;;;5.05;0.47;;;;;;;11.67;69.39;100391.75;5142742;28;20551;-82
2023/03/18 05:44:18;;;;;;;0.32;0.32;;;;;;;11.68;70.32;100405.75;5194183;28;20022;-83
2023/03/18 05:46:51;;;;;;;1.27;0.95;;;;;;;11.64;69.38;100400.59;5144643;28;20120;-83
2023/03/18 05:49:22;;;;;;;0.50;0.50;;;;;;;11.73;68.75;100409.06;5168450;28;20532;-81
2023/03/18 05:51:52;;;;;;;0.20;0.20;;;;;;;11.78;68.22;100404.50;5180814;28;20088;-81
2023/03/18 05:54:23;;;;;;;1.67;0.75;;;;;;;11.76;68.36;100404.56;5178334;28;20397;-81
2023/03/18 05:56:54;;;;;;;1.70;1.08;;;;;;;11.83;67.80;100413.06;5150432;28;20090;-82
2023/03/18 05:59:25;;;;;;;0.95;0.95;;;;;;;11.84;67.55;100408.66;5185262;28;20210;-81
2023/03/18 06:01:55;;;;;;;0.20;0.20;;;;;;;11.83;67.32;100418.34;5174843;28;20018;-80
2023/03/18 06:04:26;;;;;;;0.60;0.60;;;;;;;11.85;67.07;100416.53;5140874;28;20038;-81
2023/03/18 06:06:57;;;;;;;0.30;0.30;;;;;;;11.84;67.18;100416.56;5177512;28;20026;-80
2023/03/18 06:09:28;;;;;;;0.55;0.55;;;;;;;11.80;66.90;100415.81;5162301;28;20029;-80
2023/03/18 06:11:58;;;;;;;0.28;0.28;;;;;;;11.84;66.89;100420.06;5179355;28;20029;-80
2023/03/18 06:14:29;;;;;;;0.30;0.30;;;;;;;11.88;66.24;100424.28;5176705;28;20090;-80
2023/03/18 06:17:00;;;;;;;0.55;0.55;;;;;;;11.85;66.94;100434.03;5166190;28;20030;-80
2023/03/18 06:19:31;;;;;;;0.30;0.30;;;;;;;11.80;66.91;100426.31;5178608;28;20033;-81
2023/03/18 06:22:01;;;;;;;1.08;0.80;;;;;;;11.84;66.47;100430.56;5170134;28;20210;-81
2023/03/18 06:24:32;;;;;;;0.50;0.50;;;;;;;11.82;66.27;100427.97;5151309;28;20050;-81
2023/03/18 06:27:02;;;;;;;0.45;0.45;;;;;;;11.83;65.90;100431.47;5167745;28;20030;-79
2023/03/18 06:29:34;;;;;;;0.43;0.43;;;;;;;11.86;65.97;100428.72;5165912;28;20050;-77
2023/03/18 06:32:04;;;;;;;1.00;1.00;;;;;;;11.84;66.06;100435.81;5165963;28;20670;-81
2023/03/18 06:34:35;;;;;;;2.60;1.73;;;;;;;11.88;65.84;100434.78;5147224;28;20037;-81
2023/03/18 06:37:06;;;;;;;0.38;0.38;;;;;;;11.81;66.07;100435.94;5166560;28;20025;-80
2023/03/18 06:39:37;;;;;;;0.47;0.47;;;;;;;11.80;65.64;100434.22;5147972;28;20465;-79
2023/03/18 06:42:08;;;;;;;0.90;0.57;;;;;;;11.81;65.81;100442.06;5181535;28;20030;-82
2023/03/18 06:44:42;;;;;;;5.00;0.95;;;;;;;11.76;66.05;100443.13;5173970;28;20088;-81
2023/03/18 06:47:12;;;;;;;0.93;0.93;;;;;;;11.81;65.63;100443.81;5150588;28;20575;-80
2023/03/18 06:49:42;;;;;;;1.75;1.20;;;;;;;11.80;65.77;100447.34;5178925;28;20049;-83
2023/03/18 06:52:13;;;;;;;1.15;1.02;;;;;;;11.58;68.44;100442.88;5164229;28;20019;-83
2023/03/18 06:54:44;;;;;;;0.40;0.40;;;;;;;11.65;66.93;100447.00;5186736;28;20048;-84
2023/03/18 06:57:15;;;;;;;0.57;0.57;;;;;;;11.63;67.93;100443.56;5157945;28;20495;-82
2023/03/18 06:59:46;;;;;;;0.20;0.20;;;;;;;11.76;66.07;100448.41;5158032;28;20066;-82
2023/03/18 07:02:17;;;;;;;0.40;0.40;;;;;;;11.80;65.91;100449.97;5184290;28;20038;-82
2023/03/18 07:04:48;;;;;;;0.52;0.45;;;;;;;11.79;66.22;100459.66;5171391;28;20042;-83
2023/03/18 07:07:21;;;;;;;0.40;0.40;;;;;;;11.79;67.05;100453.53;5159160;28;20120;-82
2023/03/18 07:09:51;;;;;;;0.28;0.28;;;;;;;11.79;68.18;100449.13;5164637;28;20038;-82
2023/03/18 07:12:21;;;;;;;0.30;0.30;;;;;;;11.83;67.47;100449.88;5161044;28;20125;-82
2023/03/18 07:14:55;;;;;;;0.63;0.63;;;;;;;11.82;67.12;100450.78;5159282;28;20026;-82
2023/03/18 07:17:25;;;;;;;0.88;0.88;;;;;;;11.84;68.10;100448.97;5141949;28;21048;-82
2023/03/18 07:19:56;;;;;;;0.50;0.50;;;;;;;11.89;67.18;100449.66;5157777;28;20117;-83
2023/03/18 07:22:26;;;;;;;0.38;0.38;;;;;;;11.92;68.01;100459.19;5174891;28;20112;-83
2023/03/18 07:24:56;;;;;;;0.40;0.40;;;;;;;11.86;68.96;100467.31;5176810;28;20069;-82
2023/03/18 07:27:27;;;;;;;0.40;0.40;;;;;;;11.91;70.23;100470.63;5181819;28;20038;-83
2023/03/18 07:29:58;;;;;;;0.30;0.30;;;;;;;11.85;70.17;100468.22;5178536;28;20217;-83
2023/03/18 07:32:29;;;;;;;0.82;0.82;;;;;;;11.86;70.99;100459.41;5160344;28;20746;-83
2023/03/18 07:35:01;;;;;;;0.35;0.35;;;;;;;11.83;71.75;100460.41;5159645;28;20042;-83
2023/03/18 07:37:32;;;;;;;0.22;0.22;;;;;;;11.92;71.18;100467.06;5164966;28;20057;-83
2023/03/18 07:40:03;;;;;;;1.65;0.70;;;;;;;11.97;71.50;100465.19;5175934;28;20038;-82
2023/03/18 07:42:33;;;;;;;0.65;0.65;;;;;;;11.92;71.92;100473.22;5142397;28;20027;-82
2023/03/18 07:45:06;;;;;;;0.68;0.68;;;;;;;12.03;71.89;100475.47;5160541;28;20492;-82
2023/03/18 07:47:37;;;;;;;0.30;0.30;;;;;;;12.08;71.60;100480.56;5143729;28;20053;-82
2023/03/18 07:50:09;;;;;;;0.22;0.22;;;;;;;12.14;71.85;100480.31;5182624;28;20037;-83
2023/03/18 07:52:40;;;;;;;0.47;0.45;;;;;;;12.20;71.22;100477.44;5160570;28;20065;-82
2023/03/18 07:55:11;;;;;;;0.40;0.40;;;;;;;12.25;71.38;100480.78;5160033;28;20060;-83
2023/03/18 07:57:42;;;;;;;0.40;0.40;;;;;;;12.35;71.24;100489.19;5156084;28;20030;-85
2023/03/18 08:00:13;;;;;;;1.55;1.27;;;;;;;12.37;71.22;100486.47;5155300;28;20119;-85
2023/03/18 08:02:43;;;;;;;1.00;0.50;;;;;;;12.37;71.40;100492.63;5159360;28;20075;-84
2023/03/18 08:05:14;;;;;;;0.50;0.50;;;;;;;12.45;70.46;100489.66;5143982;28;20137;-86
2023/03/18 08:07:45;;;;;;;0.40;0.40;;;;;;;12.53;70.72;100498.13;5162536;28;20038;-82
2023/03/18 08:10:16;;;;;;;0.30;0.30;;;;;;;12.54;70.50;100497.22;5167781;28;20081;-82
2023/03/18 08:12:47;;;;;;;0.20;0.20;;;;;;;12.45;71.08;100494.94;5174803;28;20026;-83
2023/03/18 08:15:17;;;;;;;0.20;0.20;;;;;;;12.63;69.52;100495.13;5186589;28;20830;-82
2023/03/18 08:17:49;;;;;;;0.50;0.50;;;;;;;12.63;70.46;100509.16;5177940;28;20123;-84
2023/03/18 08:20:20;;;;;;;0.43;0.43;;;;;;;12.62;70.83;100504.81;5160846;28;20684;-80
2023/03/18 08:22:50;;;;;;;0.20;0.20;;;;;;;12.68;70.64;100509.00;5158994;28;20093;-82
2023/03/18 08:25:22;;;;;;;0.25;0.25;;;;;;;12.69;70.59;100513.31;5172456;28;20084;-80
2023/03/18 08:27:52;;;;;;;0.40;0.40;;;;;;;12.81;69.65;100519.91;5163217;28;20030;-81
2023/03/18 08:30:27;;;;;;;0.50;0.35;;;;;;;12.81;70.05;100512.00;5187967;28;20052;-81
2023/03/18 08:32:58;;;;;;;0.57;0.57;;;;;;;12.77;69.64;100521.75;5162027;28;20022;-82
2023/03/18 08:35:28;;;;;;;0.20;0.20;;;;;;;12.85;69.48;100519.69;5161075;28;20038;-81
2023/03/18 08:37:59;;;;;;;0.30;0.30;;;;;;;12.90;69.23;100516.88;5162526;28;20120;-83
2023/03/18 08:40:30;;;;;;;1.17;0.82;;;;;;;12.82;69.39;100516.31;5174387;28;20102;-82
2023/03/18 08:43:00;;;;;;;0.57;0.57;;;;;;;12.82;69.13;100516.31;5151964;28;20041;-82
2023/03/18 08:45:30;;;;;;;0.40;0.40;;;;;;;12.80;69.26;100515.56;5158881;28;20120;-82
2023/03/18 08:48:01;;;;;;;0.30;0.30;;;;;;;12.83;69.19;100518.91;5145602;28;20025;-81
2023/03/18 08:50:34;;;;;;;0.20;0.20;;;;;;;12.80;69.19;100512.91;5158088;28;20041;-81
2023/03/18 08:53:05;;;;;;;;;;;;;;;12.87;69.23;100517.84;5179820;28;20023;-84
2023/03/18 08:55:39;;;;;;;0.38;0.38;;;;;;;12.88;69.06;100521.38;5180904;28;19924;-81
2023/03/18 08:58:10;;;;;;;0.40;0.40;;;;;;;12.83;69.35;100521.53;5132766;28;20026;-81
2023/03/18 09:00:41;;;;;;;1.15;0.73;;;;;;;12.83;69.41;100528.56;5138243;28;20495;-81
2023/03/18 09:03:12;;;;;;;0.30;0.30;;;;;;;12.89;69.12;100534.47;5175182;28;20481;-82
2023/03/18 09:05:47;;;;;;;1.00;0.95;;;;;;;12.93;69.35;100535.19;5162800;28;20038;-83
2023/03/18 09:08:17;;;;;;;0.77;0.77;;;;;;;12.95;69.30;100540.38;5172947;28;20040;-81
2023/03/18 09:10:52;;;;;;;0.28;0.28;;;;;;;12.97;69.21;100533.28;5177085;28;20050;-82
2023/03/18 09:13:24;;;;;;;0.38;0.38;;;;;;;13.01;69.16;100533.09;5162876;28;21225;-83
2023/03/18 09:15:57;;;;;;;0.30;0.30;;;;;;;13.04;68.57;100529.50;5172862;28;20042;-82
2023/03/18 09:18:28;;;;;;;0.20;0.20;;;;;;;13.05;68.81;100531.22;5146812;28;20026;-81
2023/03/18 09:20:58;;;;;;;0.20;0.20;;;;;;;13.07;68.89;100524.13;5158715;28;20700;-82
2023/03/18 09:23:30;;;;;;;0.50;0.50;;;;;;;13.10;68.41;100520.50;5162122;28;20030;-84
2023/03/18 09:26:01;;;;;;;0.30;0.30;;;;;;;13.13;68.71;100518.59;5160501;28;20057;-82
2023/03/18 09:28:31;;;;;;;0.25;0.25;;;;;;;13.14;68.64;100525.56;5177118;28;20472;-82
2023/03/18 09:31:02;;;;;;;0.52;0.40;;;;;;;13.14;68.30;100524.72;5140286;28;20062;-83
2023/03/18 09:33:35;;;;;;;0.30;0.30;;;;;;;13.12;68.53;100519.50;5160325;28;20791;-83
2023/03/18 09:36:06;;;;;;;0.30;0.30;;;;;;;13.16;68.34;100523.75;5171994;28;20105;-80
2023/03/18 09:38:37;;;;;;;0.20;0.20;;;;;;;13.21;68.36;100520.91;5145814;28;20672;-81
2023/03/18 09:41:37;;;;;;;0.30;0.30;;;;;;;13.28;68.14;100516.22;5189520;28;20111;-82
2023/03/18 09:44:13;;;;;;;0.65;0.57;;;;;;;13.25;68.18;100516.38;5160837;28;20037;-82
2023/03/18 09:46:59;;;;;;;0.40;0.40;;;;;;;13.28;68.95;100513.59;5145235;28;20069;-82
2023/03/18 09:49:54;;;;;;;0.30;0.30;;;;;;;13.38;68.22;100510.56;5160460;28;20121;-83
2023/03/18 09:52:36;;;;;;;0.40;0.40;;;;;;;13.32;67.64;100513.41;5146631;28;20026;-83
2023/03/18 09:55:28;;;;;;;0.65;0.65;;;;;;;13.30;67.24;100504.72;5192896;28;20590;-83
2023/03/18 09:58:02;;;;;;;0.20;0.20;;;;;;;13.33;67.31;100509.00;5163304;28;20026;-81
2023/03/18 10:00:35;;;;;;;;;;;;;;;13.38;66.96;100507.94;5160154;28;20084;-79
2023/03/18 10:03:08;;;;;;;0.20;0.20;;;;;;;13.43;67.12;100504.22;5162927;28;19936;-80
2023/03/18 10:05:47;;;;;;;0.20;0.20;;;;;;;13.42;67.04;100503.38;5161819;28;20034;-81
2023/03/18 10:08:39;;;;;;;0.30;0.30;;;;;;;13.51;67.01;100512.66;5145259;28;20379;-81
2023/03/18 10:11:20;;;;;;;0.38;0.38;;;;;;;13.53;67.14;100505.56;5190483;28;20091;-80
2023/03/18 10:14:19;;;;;;;0.32;0.32;;;;;;;13.50;66.32;100517.09;5163280;28;20026;-80
2023/03/18 10:17:24;;;;;;;0.93;0.93;;;;;;;13.68;66.43;100514.56;5166469;28;20124;-82
2023/03/18 10:19:58;;;;;;;0.50;0.50;;;;;;;13.68;66.66;100515.44;5146071;28;20061;-84
2023/03/18 10:22:37;;;;;;;;;;;;;;;13.73;66.67;100519.63;5176836;28;20455;-82
2023/03/18 10:25:18;;;;;;;1.67;0.47;;;;;;;13.69;66.59;100511.00;5184238;28;19925;-81
2023/03/18 10:28:27;;;;;;;0.32;0.32;;;;;;;13.78;65.96;100515.03;5162075;28;20538;-81
2023/03/18 10:31:09;;;;;;;0.47;0.47;;;;;;;13.80;65.94;100503.50;5158967;28;20303;-81
2023/03/18 10:34:15;;;;;;;0.20;0.20;;;;;;;13.85;65.68;100512.03;5148353;28;20748;-81
2023/03/18 10:37:05;;;;;;;0.30;0.30;;;;;;;13.88;66.08;100518.13;5122253;28;20689;-81
2023/03/18 10:39:36;;;;;;;0.20;0.20;;;;;;;13.99;65.35;100531.69;5171421;28;20117;-79
2023/03/18 10:42:18;;;;;;;0.30;0.30;;;;;;;14.03;65.56;100514.78;5184922;28;20101;-80
2023/03/18 10:44:50;;;;;;;0.63;0.30;;;;;;;14.06;65.57;100512.03;5182698;28;20520;-81
2023/03/18 10:47:26;;;;;;;1.08;1.05;;;;;;;14.12;65.23;100511.75;5175825;28;20033;-81
2023/03/18 10:50:32;;;;;;;0.45;0.45;;;;;;;14.12;63.86;100513.53;5164516;28;20089;-81
2023/03/18 10:53:27;;;;;;;0.20;0.20;;;;;;;14.22;64.04;100511.34;5171661;28;20052;-82
2023/03/18 10:56:03;;;;;;;0.20;0.20;;;;;;;14.21;63.08;100509.63;5187528;28;20034;-81
2023/03/18 10:58:34;;;;;;;0.20;0.20;;;;;;;14.27;63.27;100509.31;5158409;28;20366;-80
2023/03/18 11:01:07;;;;;;;0.20;0.20;;;;;;;14.34;62.80;100516.03;5156625;28;20329;-81
2023/03/18 11:03:55;;;;;;;0.30;0.30;;;;;;;14.44;62.36;100509.41;5159701;28;20022;-80
2023/03/18 11:06:49;;;;;;;0.20;0.20;;;;;;;14.45;61.34;100510.28;5142009;28;20045;-80
2023/03/18 11:09:26;;;;;;;2.08;0.98;;;;;;;14.57;61.52;100519.41;5139456;28;20136;-81
2023/03/18 11:12:02;;;;;;;0.52;0.52;;;;;;;14.59;60.64;100521.03;5143954;28;20083;-81
2023/03/18 11:14:36;;;;;;;0.20;0.20;;;;;;;14.71;61.76;100519.63;5169729;28;20058;-81
2023/03/18 11:17:29;;;;;;;0.20;0.20;;;;;;;14.89;61.87;100524.97;5174022;28;20515;-79
2023/03/18 11:20:19;;;;;;;0.25;0.25;;;;;;;14.95;61.27;100519.38;5153718;28;20674;-81
2023/03/18 11:22:54;;;;;;;0.40;0.40;;;;;;;15.02;61.91;100518.16;5161306;28;20097;-77
2023/03/18 11:25:29;;;;;;;0.40;0.40;;;;;;;15.05;61.02;100518.00;5172857;28;20475;-79
2023/03/18 11:28:05;;;;;;;0.20;0.20;;;;;;;15.12;59.88;100521.22;5172747;28;20046;-79
2023/03/18 11:31:05;;;;;;;0.20;0.20;;;;;;;15.06;60.33;100516.22;5172975;28;20137;-79
2023/03/18 11:33:36;;;;;;;0.52;0.40;;;;;;;15.05;60.61;100514.50;5134370;28;20053;-81
2023/03/18 11:36:08;;;;;;;0.55;0.40;;;;;;;15.01;59.78;100516.44;5160191;28;20045;-82
2023/03/18 11:38:39;;;;;;;1.13;0.82;;;;;;;15.09;60.01;100516.91;5173534;28;20073;-83
2023/03/18 11:41:21;;;;;;;0.40;0.40;;;;;;;15.17;59.26;100521.81;5160851;28;20115;-82
2023/03/18 11:44:00;;;;;;;0.20;0.20;;;;;;;15.24;59.34;100525.03;5146756;28;20022;-82
2023/03/18 11:46:44;;;;;;;0.20;0.20;;;;;;;15.33;59.86;100519.25;5164448;28;20038;-82
2023/03/18 11:49:20;;;;;;;0.20;0.20;;;;;;;15.36;60.39;100519.13;5166317;28;20594;-82
2023/03/18 11:51:58;;;;;;;0.20;0.20;;;;;;;15.40;60.06;100511.88;5178852;28;20048;-83
2023/03/18 11:54:35;;;;;;;0.30;0.30;;;;;;;15.45;59.90;100501.94;5189926;28;20072;-81
2023/03/18 11:57:24;;;;;;;0.30;0.30;;;;;;;15.49;60.31;100497.34;5167966;28;20025;-82